createdAt,value
2018-07-28T00:02:00.790Z,22.73
2018-07-28T00:05:08.566Z,22.75
2018-07-28T00:08:15.339Z,22.70
2018-07-28T00:11:21.018Z,22.67
2018-07-28T00:14:26.583Z,22.66
2018-07-28T00:17:32.175Z,22.63
2018-07-28T00:20:38.177Z,22.61
2018-07-28T00:23:45.242Z,22.58
2018-07-28T00:26:52.131Z,22.54
2018-07-28T00:29:59.106Z,22.51
2018-07-28T00:33:05.086Z,22.48
2018-07-28T00:36:10.997Z,22.45
2018-07-28T00:39:17.890Z,22.43
2018-07-28T00:42:23.065Z,22.37
2018-07-28T00:45:28.215Z,22.36
2018-07-28T00:48:35.307Z,22.32
2018-07-28T00:51:41.326Z,22.28
2018-07-28T00:54:46.222Z,22.24
2018-07-28T00:57:51.997Z,22.20
2018-07-28T01:00:57.788Z,22.19
2018-07-28T01:04:03.852Z,22.17
2018-07-28T01:07:09.843Z,22.12
2018-07-28T01:10:16.645Z,22.08
2018-07-28T01:13:22.248Z,22.03
2018-07-28T01:16:27.654Z,22.01
2018-07-28T01:19:33.836Z,21.99
2018-07-28T01:22:40.352Z,21.94
2018-07-28T01:25:45.246Z,21.91
2018-07-28T01:28:59.592Z,21.87
2018-07-28T01:32:04.471Z,21.82
2018-07-28T01:35:10.211Z,21.80
2018-07-28T01:38:16.375Z,21.77
2018-07-28T01:41:21.688Z,21.75
2018-07-28T01:44:28.562Z,21.72
2018-07-28T01:47:34.291Z,21.67
2018-07-28T01:50:40.400Z,21.67
2018-07-28T01:53:47.720Z,21.65
2018-07-28T01:56:54.828Z,21.60
2018-07-28T02:00:00.339Z,21.55
2018-07-28T02:03:05.230Z,21.52
2018-07-28T02:06:10.171Z,21.53
2018-07-28T02:09:17.257Z,21.50
2018-07-28T02:12:24.468Z,21.47
2018-07-28T02:15:30.495Z,21.45
2018-07-28T02:18:36.909Z,21.42
2018-07-28T02:21:42.464Z,21.40
2018-07-28T02:24:48.403Z,21.37
2018-07-28T02:27:54.007Z,21.35
2018-07-28T02:30:59.187Z,21.32
2018-07-28T02:34:05.106Z,21.30
2018-07-28T02:37:11.403Z,21.25
2018-07-28T02:40:18.350Z,21.23
2018-07-28T02:43:39.726Z,21.23
2018-07-28T02:46:44.972Z,21.18
2018-07-28T02:49:52.129Z,21.16
2018-07-28T02:52:57.368Z,21.15
2018-07-28T02:56:02.800Z,21.10
2018-07-28T02:59:09.880Z,21.09
2018-07-28T03:02:15.711Z,21.08
2018-07-28T03:05:22.946Z,21.09
2018-07-28T03:08:28.471Z,21.03
2018-07-28T03:11:35.203Z,21.02
2018-07-28T03:14:40.962Z,20.99
2018-07-28T03:17:46.124Z,20.98
2018-07-28T03:20:51.895Z,20.96
2018-07-28T03:23:58.556Z,20.92
2018-07-28T03:27:05.583Z,20.91
2018-07-28T03:30:12.108Z,20.89
2018-07-28T03:33:18.407Z,20.86
2018-07-28T03:36:23.266Z,20.85
2018-07-28T03:39:28.575Z,20.85
2018-07-28T03:42:35.172Z,20.82
2018-07-28T03:45:40.705Z,20.78
2018-07-28T03:48:46.863Z,20.81
2018-07-28T03:51:53.695Z,20.78
2018-07-28T03:55:01.748Z,20.78
2018-07-28T03:58:07.008Z,20.78
2018-07-28T04:01:12.852Z,20.76
2018-07-28T04:04:18.052Z,20.79
2018-07-28T04:07:23.391Z,20.79
2018-07-28T04:10:29.546Z,20.78
2018-07-28T04:13:36.616Z,20.83
2018-07-28T04:16:42.478Z,20.83
2018-07-28T04:19:48.537Z,20.82
2018-07-28T04:22:55.558Z,20.81
2018-07-28T04:26:01.635Z,20.77
2018-07-28T04:29:07.329Z,20.79
2018-07-28T04:32:12.964Z,20.79
2018-07-28T04:35:18.219Z,20.83
2018-07-28T04:38:24.271Z,20.84
2018-07-28T04:41:29.515Z,20.85
2018-07-28T04:44:35.683Z,20.85
2018-07-28T04:47:41.563Z,20.84
2018-07-28T04:50:47.119Z,20.89
2018-07-28T04:53:52.907Z,20.88
2018-07-28T04:56:59.934Z,20.90
2018-07-28T05:00:06.284Z,20.93
2018-07-28T05:03:11.463Z,20.94
2018-07-28T05:06:17.521Z,20.96
2018-07-28T05:09:23.890Z,20.98
2018-07-28T05:12:29.042Z,21.00
2018-07-28T05:15:33.927Z,21.02
2018-07-28T05:18:39.953Z,21.04
2018-07-28T05:21:45.854Z,21.05
2018-07-28T05:24:52.116Z,21.06
2018-07-28T05:27:58.132Z,21.08
2018-07-28T05:31:04.175Z,21.11
2018-07-28T05:34:10.044Z,21.14
2018-07-28T05:37:16.148Z,21.17
2018-07-28T05:40:22.269Z,21.21
2018-07-28T05:43:27.134Z,21.24
2018-07-28T05:46:32.876Z,21.27
2018-07-28T05:49:39.259Z,21.32
2018-07-28T05:52:45.203Z,21.36
2018-07-28T05:55:52.017Z,21.39
2018-07-28T05:58:58.219Z,21.44
2018-07-28T06:02:03.394Z,21.49
2018-07-28T06:05:09.223Z,21.55
2018-07-28T06:08:14.388Z,21.60
2018-07-28T06:11:19.907Z,21.63
2018-07-28T06:14:25.755Z,21.67
2018-07-28T06:17:31.004Z,21.71
2018-07-28T06:20:36.137Z,21.76
2018-07-28T06:23:41.012Z,21.81
2018-07-28T06:26:46.847Z,21.87
2018-07-28T06:29:51.715Z,21.92
2018-07-28T06:32:57.322Z,21.97
2018-07-28T06:36:05.012Z,22.03
2018-07-28T06:39:12.351Z,22.09
2018-07-28T06:42:17.236Z,22.15
2018-07-28T06:45:23.116Z,22.20
2018-07-28T06:48:28.634Z,22.28
2018-07-28T06:51:34.531Z,22.32
2018-07-28T06:54:39.435Z,22.38
2018-07-28T06:57:44.819Z,22.42
2018-07-28T07:00:49.891Z,22.47
2018-07-28T07:03:55.032Z,22.52
2018-07-28T07:07:00.807Z,22.59
2018-07-28T07:10:06.305Z,22.67
2018-07-28T07:13:12.176Z,22.72
2018-07-28T07:16:17.703Z,22.79
2018-07-28T07:19:22.604Z,22.86
2018-07-28T07:22:28.765Z,22.95
2018-07-28T07:25:33.635Z,23.02
2018-07-28T07:28:39.456Z,23.08
2018-07-28T07:31:44.675Z,23.15
2018-07-28T07:34:50.562Z,23.23
2018-07-28T07:37:55.444Z,23.31
2018-07-28T07:41:00.341Z,23.39
2018-07-28T07:44:05.699Z,23.47
2018-07-28T07:47:10.627Z,23.52
2018-07-28T07:50:16.689Z,23.60
2018-07-28T07:53:22.579Z,23.68
2018-07-28T07:56:28.103Z,23.79
2018-07-28T07:59:33.907Z,23.85
2018-07-28T08:02:38.763Z,23.94
2018-07-28T08:05:44.367Z,24.01
2018-07-28T08:08:51.211Z,24.09
2018-07-28T08:11:56.920Z,24.19
2018-07-28T08:15:02.843Z,24.29
2018-07-28T08:18:08.897Z,24.38
2018-07-28T08:21:14.620Z,24.50
2018-07-28T08:24:19.955Z,24.59
2018-07-28T08:27:25.182Z,24.69
2018-07-28T08:30:30.066Z,24.78
2018-07-28T08:33:37.195Z,24.88
2018-07-28T08:36:42.100Z,24.94
2018-07-28T08:39:47.385Z,25.04
2018-07-28T08:42:52.372Z,25.11
2018-07-28T08:45:57.733Z,25.22
2018-07-28T08:49:02.650Z,25.32
2018-07-28T08:52:07.796Z,25.40
2018-07-28T08:55:13.756Z,25.47
2018-07-28T08:58:19.668Z,25.58
2018-07-28T09:01:26.310Z,25.69
2018-07-28T09:04:32.102Z,25.77
2018-07-28T09:07:37.919Z,25.89
2018-07-28T09:10:43.530Z,25.99
2018-07-28T09:13:49.403Z,26.09
2018-07-28T09:16:54.986Z,26.19
2018-07-28T09:20:00.963Z,26.29
2018-07-28T09:23:06.423Z,26.39
2018-07-28T09:26:12.862Z,26.49
2018-07-28T09:29:18.605Z,26.60
2018-07-28T09:32:24.431Z,26.69
2018-07-28T09:35:29.671Z,26.80
2018-07-28T09:38:34.647Z,26.90
2018-07-28T09:41:40.375Z,27.01
2018-07-28T09:44:45.975Z,27.10
2018-07-28T09:47:51.788Z,27.21
2018-07-28T09:50:57.560Z,27.34
2018-07-28T09:54:02.459Z,27.46
2018-07-28T09:57:08.409Z,27.66
2018-07-28T10:00:18.813Z,27.82
2018-07-28T10:03:25.193Z,27.98
2018-07-28T10:06:30.264Z,28.16
2018-07-28T10:09:36.150Z,28.27
2018-07-28T10:12:41.995Z,28.34
2018-07-28T10:15:47.693Z,28.44
2018-07-28T10:18:53.536Z,28.47
2018-07-28T10:21:58.418Z,28.52
2018-07-28T10:25:03.824Z,28.56
2018-07-28T10:28:10.967Z,28.59
2018-07-28T10:31:16.839Z,28.63
2018-07-28T10:34:22.780Z,28.71
2018-07-28T10:37:29.279Z,28.75
2018-07-28T10:40:34.983Z,28.85
2018-07-28T10:43:39.846Z,28.91
2018-07-28T10:46:45.651Z,28.99
2018-07-28T10:49:52.712Z,29.04
2018-07-28T10:52:58.192Z,29.09
2018-07-28T10:56:03.103Z,29.12
2018-07-28T10:59:08.971Z,29.15
2018-07-28T11:02:15.478Z,29.18
2018-07-28T11:05:20.382Z,29.25
2018-07-28T11:08:25.771Z,29.30
2018-07-28T11:11:30.682Z,29.32
2018-07-28T11:14:35.659Z,29.37
2018-07-28T11:17:41.103Z,29.39
2018-07-28T11:20:46.257Z,29.40
2018-07-28T11:23:56.947Z,29.42
2018-07-28T11:27:02.282Z,29.47
2018-07-28T11:30:09.722Z,29.49
2018-07-28T11:33:26.676Z,29.54
2018-07-28T11:36:43.684Z,29.58
2018-07-28T11:40:00.327Z,29.63
2018-07-28T11:43:17.087Z,29.66
2018-07-28T11:46:22.963Z,29.71
2018-07-28T11:49:28.751Z,29.78
2018-07-28T11:52:33.651Z,29.83
2018-07-28T11:55:40.310Z,29.87
2018-07-28T11:58:47.208Z,29.91
2018-07-28T12:01:52.875Z,29.95
2018-07-28T12:04:58.951Z,29.99
2018-07-28T12:08:05.024Z,30.04
2018-07-28T12:11:10.700Z,30.10
2018-07-28T12:14:15.572Z,30.14
2018-07-28T12:17:20.782Z,30.17
2018-07-28T12:20:26.604Z,30.21
2018-07-28T12:23:32.349Z,30.26
2018-07-28T12:26:37.256Z,30.29
2018-07-28T12:29:42.479Z,30.30
2018-07-28T12:32:48.263Z,30.33
2018-07-28T12:35:53.943Z,30.38
2018-07-28T12:38:59.673Z,30.44
2018-07-28T12:42:04.539Z,30.50
2018-07-28T12:45:09.795Z,30.55
2018-07-28T12:48:15.707Z,30.61
2018-07-28T12:51:36.303Z,30.69
2018-07-28T12:54:41.703Z,30.74
2018-07-28T12:57:47.631Z,30.81
2018-07-28T13:00:53.707Z,30.86
2018-07-28T13:03:59.597Z,30.93
2018-07-28T13:07:05.615Z,30.99
2018-07-28T13:10:11.240Z,31.05
2018-07-28T13:13:17.203Z,31.13
2018-07-28T13:16:22.068Z,31.21
2018-07-28T13:19:27.026Z,31.28
2018-07-28T13:22:32.229Z,31.37
2018-07-28T13:25:37.128Z,31.43
2018-07-28T13:28:42.935Z,31.46
2018-07-28T13:31:48.861Z,31.50
2018-07-28T13:34:54.325Z,31.54
2018-07-28T13:37:59.625Z,31.55
2018-07-28T13:41:05.499Z,31.53
2018-07-28T13:44:10.375Z,31.47
2018-07-28T13:47:15.262Z,31.44
2018-07-28T13:50:21.126Z,31.35
2018-07-28T13:53:26.065Z,31.28
2018-07-28T13:56:32.314Z,31.20
2018-07-28T13:59:39.688Z,31.10
2018-07-28T14:02:45.191Z,31.03
2018-07-28T14:05:50.108Z,30.61
2018-07-28T14:08:56.009Z,30.19
2018-07-28T14:12:01.498Z,29.87
2018-07-28T14:15:08.668Z,29.47
2018-07-28T14:18:15.874Z,29.26
2018-07-28T14:21:20.975Z,29.03
2018-07-28T14:24:26.879Z,28.67
2018-07-28T14:27:32.644Z,28.34
2018-07-28T14:30:38.574Z,28.03
2018-07-28T14:33:44.383Z,27.79
2018-07-28T14:36:51.475Z,27.72
2018-07-28T14:39:57.207Z,27.41
2018-07-28T14:43:02.360Z,27.37
2018-07-28T14:46:08.147Z,27.15
2018-07-28T14:49:13.067Z,27.11
2018-07-28T14:52:17.971Z,26.79
2018-07-28T14:55:22.935Z,26.53
2018-07-28T14:58:27.832Z,26.47
2018-07-28T15:01:32.691Z,26.31
2018-07-28T15:04:38.466Z,26.07
2018-07-28T15:07:43.963Z,25.92
2018-07-28T15:10:49.782Z,25.86
2018-07-28T15:13:54.718Z,25.85
2018-07-28T15:17:00.819Z,25.76
2018-07-28T15:20:06.871Z,25.68
2018-07-28T15:23:13.056Z,25.64
2018-07-28T15:26:18.274Z,25.51
2018-07-28T15:29:25.451Z,25.42
2018-07-28T15:32:31.180Z,25.34
2018-07-28T15:35:38.215Z,25.25
2018-07-28T15:38:43.934Z,25.19
2018-07-28T15:41:50.958Z,25.13
2018-07-28T15:44:56.629Z,25.06
2018-07-28T15:48:02.074Z,24.99
2018-07-28T15:51:08.128Z,24.88
2018-07-28T15:54:13.919Z,24.84
2018-07-28T15:57:19.124Z,24.82
2018-07-28T16:00:26.288Z,24.79
2018-07-28T16:03:32.316Z,24.73
2018-07-28T16:06:38.255Z,24.65
2018-07-28T16:09:43.980Z,24.58
2018-07-28T16:12:50.341Z,24.51
2018-07-28T16:15:55.912Z,24.43
2018-07-28T16:19:00.773Z,24.36
2018-07-28T16:22:06.676Z,24.31
2018-07-28T16:25:12.209Z,24.27
2018-07-28T16:28:17.062Z,24.19
2018-07-28T16:31:22.652Z,24.14
2018-07-28T16:34:28.195Z,24.09
2018-07-28T16:37:33.771Z,24.04
2018-07-28T16:40:38.656Z,23.99
2018-07-28T16:43:43.492Z,23.84
2018-07-28T16:46:48.375Z,23.79
2018-07-28T16:49:53.819Z,23.82
2018-07-28T16:52:59.681Z,23.78
2018-07-28T16:56:05.756Z,23.72
2018-07-28T16:59:11.704Z,23.67
2018-07-28T17:02:17.403Z,23.67
2018-07-28T17:05:22.272Z,23.60
2018-07-28T17:08:28.195Z,23.58
2018-07-28T17:11:34.982Z,23.56
2018-07-28T17:14:40.410Z,23.52
2018-07-28T17:17:46.169Z,23.49
2018-07-28T17:20:51.883Z,23.48
2018-07-28T17:23:57.379Z,23.45
2018-07-28T17:27:02.303Z,23.43
2018-07-28T17:30:07.511Z,23.38
2018-07-28T17:33:13.212Z,23.33
2018-07-28T17:36:18.059Z,23.31
2018-07-28T17:39:23.368Z,23.28
2018-07-28T17:42:28.208Z,23.25
2018-07-28T17:45:33.957Z,23.21
2018-07-28T17:48:39.178Z,23.18
2018-07-28T17:51:44.971Z,23.17
2018-07-28T17:54:50.414Z,23.15
2018-07-28T17:57:56.072Z,23.12
2018-07-28T18:01:02.884Z,23.11
2018-07-28T18:04:09.822Z,23.08
2018-07-28T18:07:15.295Z,23.05
2018-07-28T18:10:22.112Z,23.02
2018-07-28T18:13:28.298Z,23.01
2018-07-28T18:16:34.216Z,22.99
2018-07-28T18:19:40.226Z,22.98
2018-07-28T18:22:46.200Z,22.93
2018-07-28T18:25:52.000Z,22.90
2018-07-28T18:28:58.683Z,22.87
2018-07-28T18:32:04.641Z,22.85
2018-07-28T18:35:10.971Z,22.81
2018-07-28T18:38:17.321Z,22.78
2018-07-28T18:41:23.120Z,22.76
2018-07-28T18:44:28.751Z,22.73
2018-07-28T18:47:33.665Z,22.70
2018-07-28T18:50:38.550Z,22.67
2018-07-28T18:53:43.447Z,22.66
2018-07-28T18:56:48.401Z,22.62
2018-07-28T18:59:53.452Z,22.59
2018-07-28T19:02:58.368Z,22.55
2018-07-28T19:06:03.312Z,22.52
2018-07-28T19:09:14.589Z,22.51
2018-07-28T19:12:26.118Z,22.47
2018-07-28T19:15:31.459Z,22.41
2018-07-28T19:18:42.514Z,22.39
2018-07-28T19:21:48.192Z,22.36
2018-07-28T19:24:55.381Z,22.31
2018-07-28T19:28:05.637Z,22.29
2018-07-28T19:31:10.971Z,22.24
2018-07-28T19:34:15.884Z,22.21
2018-07-28T19:37:24.008Z,22.17
2018-07-28T19:40:29.724Z,22.14
2018-07-28T19:43:35.921Z,22.10
2018-07-28T19:46:41.072Z,22.08
2018-07-28T19:49:46.824Z,22.03
2018-07-28T19:52:53.918Z,21.99
2018-07-28T19:56:00.099Z,21.97
2018-07-28T19:59:06.067Z,21.93
2018-07-28T20:02:11.890Z,21.91
2018-07-28T20:05:17.991Z,21.89
2018-07-28T20:08:23.702Z,21.86
2018-07-28T20:11:28.607Z,21.85
2018-07-28T20:14:34.396Z,21.80
2018-07-28T20:17:39.783Z,21.77
2018-07-28T20:20:44.662Z,21.79
2018-07-28T20:23:49.487Z,21.77
2018-07-28T20:26:55.063Z,21.72
2018-07-28T20:30:00.288Z,21.72
2018-07-28T20:33:06.259Z,21.71
2018-07-28T20:36:11.955Z,21.71
2018-07-28T20:39:17.854Z,21.70
2018-07-28T20:42:23.066Z,21.70
2018-07-28T20:45:28.109Z,21.67
2018-07-28T20:48:33.347Z,21.67
2018-07-28T20:51:38.951Z,21.63
2018-07-28T20:54:43.799Z,21.62
2018-07-28T20:57:49.588Z,21.62
2018-07-28T21:00:54.467Z,21.59
2018-07-28T21:03:59.335Z,21.58
2018-07-28T21:07:04.828Z,21.56
2018-07-28T21:10:10.103Z,21.57
2018-07-28T21:13:15.675Z,21.56
2018-07-28T21:16:20.596Z,21.56
2018-07-28T21:19:26.435Z,21.55
2018-07-28T21:22:31.347Z,21.54
2018-07-28T21:25:36.216Z,21.51
2018-07-28T21:28:42.010Z,21.50
2018-07-28T21:31:48.079Z,21.44
2018-07-28T21:34:54.907Z,21.41
2018-07-28T21:38:00.690Z,21.31
2018-07-28T21:41:06.883Z,21.26
2018-07-28T21:44:12.571Z,21.17
2018-07-28T21:47:18.551Z,21.03
2018-07-28T21:50:23.626Z,20.99
2018-07-28T21:53:29.387Z,20.99
2018-07-28T21:56:35.249Z,20.93
2018-07-28T21:59:40.545Z,20.77
2018-07-28T22:02:45.975Z,20.79
2018-07-28T22:05:51.344Z,20.77
2018-07-28T22:08:56.209Z,20.63
2018-07-28T22:12:02.128Z,20.62
2018-07-28T22:15:07.812Z,20.58
2018-07-28T22:18:12.667Z,20.58
2018-07-28T22:21:18.214Z,20.60
2018-07-28T22:24:23.702Z,20.58
2018-07-28T22:27:28.551Z,20.60
2018-07-28T22:30:33.651Z,20.55
2018-07-28T22:33:42.276Z,20.52
2018-07-28T22:36:47.806Z,20.53
2018-07-28T22:39:52.669Z,20.45
2018-07-28T22:42:57.868Z,20.41
2018-07-28T22:46:03.626Z,20.38
2018-07-28T22:49:08.491Z,20.35
2018-07-28T22:52:13.792Z,20.35
2018-07-28T22:55:18.671Z,20.33
2018-07-28T22:58:24.443Z,20.29
2018-07-28T23:01:31.399Z,20.17
2018-07-28T23:04:37.132Z,20.16
2018-07-28T23:07:42.991Z,20.11
2018-07-28T23:10:47.867Z,20.09
2018-07-28T23:13:54.222Z,20.14
2018-07-28T23:16:59.106Z,20.15
2018-07-28T23:20:05.702Z,20.14
2018-07-28T23:23:11.210Z,20.14
2018-07-28T23:26:16.096Z,20.12
2018-07-28T23:29:21.975Z,20.11
2018-07-28T23:32:26.830Z,20.11
2018-07-28T23:35:32.272Z,20.03
2018-07-28T23:38:37.487Z,20.00
2018-07-28T23:41:43.554Z,19.97
2018-07-28T23:44:49.156Z,19.92
2018-07-28T23:47:56.344Z,19.91
2018-07-28T23:51:02.401Z,19.91
2018-07-28T23:54:08.413Z,19.93
2018-07-28T23:57:14.173Z,19.89
